sensor_id;sensor_type;location;lat;lon;timestamp;noise_LAeq;noise_LA_min;noise_LA_max;noise_LA01;noise_LA95
68279;Laerm;55108;51.790;10.960;2023-08-24T00:00:55;55.24;27.66;74.61;;
68279;Laerm;55108;51.790;10.960;2023-08-24T00:03:21;29.45;27.75;37.35;;
68279;Laerm;55108;51.790;10.960;2023-08-24T00:05:47;33.84;28.30;45.66;;
68279;Laerm;55108;51.790;10.960;2023-08-24T00:08:14;29.52;28.22;32.32;;
68279;Laerm;55108;51.790;10.960;2023-08-24T00:10:39;52.60;28.89;68.78;;
68279;Laerm;55108;51.790;10.960;2023-08-24T00:13:08;55.89;28.23;75.24;;
68279;Laerm;55108;51.790;10.960;2023-08-24T00:15:34;35.17;28.37;51.47;;
68279;Laerm;55108;51.790;10.960;2023-08-24T00:18:01;33.32;29.95;39.56;;
68279;Laerm;55108;51.790;10.960;2023-08-24T00:20:26;52.21;29.88;69.44;;
68279;Laerm;55108;51.790;10.960;2023-08-24T00:22:52;32.03;29.65;39.18;;
68279;Laerm;55108;51.790;10.960;2023-08-24T00:25:18;30.30;29.06;32.64;;
68279;Laerm;55108;51.790;10.960;2023-08-24T00:27:44;51.76;29.21;67.43;;
68279;Laerm;55108;51.790;10.960;2023-08-24T00:30:10;52.41;28.58;68.62;;
68279;Laerm;55108;51.790;10.960;2023-08-24T00:32:35;30.18;28.45;38.91;;
68279;Laerm;55108;51.790;10.960;2023-08-24T00:35:02;29.83;28.41;39.47;;
68279;Laerm;55108;51.790;10.960;2023-08-24T00:37:27;30.47;28.78;36.36;;
68279;Laerm;55108;51.790;10.960;2023-08-24T00:39:54;56.20;28.21;74.01;;
68279;Laerm;55108;51.790;10.960;2023-08-24T00:42:20;32.51;28.13;40.61;;
68279;Laerm;55108;51.790;10.960;2023-08-24T00:44:47;30.98;27.98;40.33;;
68279;Laerm;55108;51.790;10.960;2023-08-24T00:47:13;29.41;28.18;32.37;;
68279;Laerm;55108;51.790;10.960;2023-08-24T00:49:39;29.02;27.71;31.53;;
68279;Laerm;55108;51.790;10.960;2023-08-24T00:52:05;28.59;27.61;30.52;;
68279;Laerm;55108;51.790;10.960;2023-08-24T00:54:30;29.10;27.84;34.94;;
68279;Laerm;55108;51.790;10.960;2023-08-24T00:56:56;28.54;27.64;31.38;;
68279;Laerm;55108;51.790;10.960;2023-08-24T00:59:22;28.61;27.66;36.33;;
68279;Laerm;55108;51.790;10.960;2023-08-24T01:01:48;31.27;27.69;41.77;;
68279;Laerm;55108;51.790;10.960;2023-08-24T01:04:14;62.50;30.29;77.51;;
68279;Laerm;55108;51.790;10.960;2023-08-24T01:06:40;57.47;29.74;72.82;;
68279;Laerm;55108;51.790;10.960;2023-08-24T01:09:05;59.45;28.14;76.23;;
68279;Laerm;55108;51.790;10.960;2023-08-24T01:14:21;29.28;28.26;34.24;;
68279;Laerm;55108;51.790;10.960;2023-08-24T01:16:49;29.42;28.00;34.50;;
68279;Laerm;55108;51.790;10.960;2023-08-24T01:19:33;50.44;27.83;65.85;;
68279;Laerm;55108;51.790;10.960;2023-08-24T01:22:01;29.21;28.10;33.74;;
68279;Laerm;55108;51.790;10.960;2023-08-24T01:24:31;54.83;28.52;73.86;;
68279;Laerm;55108;51.790;10.960;2023-08-24T01:27:00;38.48;29.10;59.08;;
68279;Laerm;55108;51.790;10.960;2023-08-24T01:29:27;30.77;29.21;34.48;;
68279;Laerm;55108;51.790;10.960;2023-08-24T01:31:52;32.86;28.86;39.83;;
68279;Laerm;55108;51.790;10.960;2023-08-24T01:34:18;54.39;28.96;71.81;;
68279;Laerm;55108;51.790;10.960;2023-08-24T01:36:44;54.63;29.54;72.74;;
68279;Laerm;55108;51.790;10.960;2023-08-24T01:42:04;38.35;28.21;48.92;;
68279;Laerm;55108;51.790;10.960;2023-08-24T01:44:32;60.74;30.31;78.33;;
68279;Laerm;55108;51.790;10.960;2023-08-24T01:47:01;31.45;28.47;41.55;;
68279;Laerm;55108;51.790;10.960;2023-08-24T01:49:28;30.29;28.27;35.88;;
68279;Laerm;55108;51.790;10.960;2023-08-24T01:51:54;30.40;28.81;34.87;;
68279;Laerm;55108;51.790;10.960;2023-08-24T01:54:20;32.49;28.88;48.54;;
68279;Laerm;55108;51.790;10.960;2023-08-24T01:56:46;54.21;29.18;73.14;;
68279;Laerm;55108;51.790;10.960;2023-08-24T01:59:12;35.14;29.45;47.09;;
68279;Laerm;55108;51.790;10.960;2023-08-24T02:01:37;30.85;28.89;37.76;;
68279;Laerm;55108;51.790;10.960;2023-08-24T02:04:03;48.80;28.52;67.82;;
68279;Laerm;55108;51.790;10.960;2023-08-24T02:06:29;64.50;32.43;79.54;;
68279;Laerm;55108;51.790;10.960;2023-08-24T02:08:54;58.21;29.78;75.67;;
68279;Laerm;55108;51.790;10.960;2023-08-24T02:11:20;39.02;30.83;53.91;;
68279;Laerm;55108;51.790;10.960;2023-08-24T02:13:46;59.70;31.27;76.92;;
68279;Laerm;55108;51.790;10.960;2023-08-24T02:16:12;34.07;30.25;43.17;;
68279;Laerm;55108;51.790;10.960;2023-08-24T02:18:38;32.27;29.18;38.78;;
68279;Laerm;55108;51.790;10.960;2023-08-24T02:21:10;53.81;30.81;71.29;;
68279;Laerm;55108;51.790;10.960;2023-08-24T02:23:37;55.71;29.92;70.49;;
68279;Laerm;55108;51.790;10.960;2023-08-24T02:26:03;59.85;30.51;73.53;;
68279;Laerm;55108;51.790;10.960;2023-08-24T02:28:29;36.31;29.43;53.71;;
68279;Laerm;55108;51.790;10.960;2023-08-24T02:30:54;57.48;29.59;72.00;;
68279;Laerm;55108;51.790;10.960;2023-08-24T02:33:25;39.46;29.46;53.33;;
68279;Laerm;55108;51.790;10.960;2023-08-24T02:35:50;63.37;30.79;80.34;;
68279;Laerm;55108;51.790;10.960;2023-08-24T02:38:16;50.38;30.31;69.10;;
68279;Laerm;55108;51.790;10.960;2023-08-24T02:40:42;55.83;30.39;73.72;;
68279;Laerm;55108;51.790;10.960;2023-08-24T02:43:08;58.61;29.32;74.26;;
68279;Laerm;55108;51.790;10.960;2023-08-24T02:45:33;57.65;30.46;73.42;;
68279;Laerm;55108;51.790;10.960;2023-08-24T02:47:59;33.05;29.41;41.14;;
68279;Laerm;55108;51.790;10.960;2023-08-24T02:50:25;62.00;30.75;77.26;;
68279;Laerm;55108;51.790;10.960;2023-08-24T02:52:51;35.83;30.15;46.94;;
68279;Laerm;55108;51.790;10.960;2023-08-24T02:55:17;35.92;31.88;45.38;;
68279;Laerm;55108;51.790;10.960;2023-08-24T02:57:43;60.68;31.55;76.61;;
68279;Laerm;55108;51.790;10.960;2023-08-24T03:00:08;59.78;31.65;76.97;;
68279;Laerm;55108;51.790;10.960;2023-08-24T03:02:35;58.47;29.20;73.95;;
68279;Laerm;55108;51.790;10.960;2023-08-24T03:05:01;59.78;31.21;77.24;;
68279;Laerm;55108;51.790;10.960;2023-08-24T03:07:27;56.22;30.48;72.89;;
68279;Laerm;55108;51.790;10.960;2023-08-24T03:09:53;64.26;33.67;88.14;;
68279;Laerm;55108;51.790;10.960;2023-08-24T03:12:18;53.86;30.83;69.66;;
68279;Laerm;55108;51.790;10.960;2023-08-24T03:14:44;51.82;30.49;70.15;;
68279;Laerm;55108;51.790;10.960;2023-08-24T03:17:10;60.63;31.20;75.07;;
68279;Laerm;55108;51.790;10.960;2023-08-24T03:19:35;62.64;33.92;77.22;;
68279;Laerm;55108;51.790;10.960;2023-08-24T03:22:02;63.69;34.08;80.33;;
68279;Laerm;55108;51.790;10.960;2023-08-24T03:24:27;58.84;32.28;74.66;;
68279;Laerm;55108;51.790;10.960;2023-08-24T03:26:53;60.05;34.83;75.25;;
68279;Laerm;55108;51.790;10.960;2023-08-24T03:29:19;63.49;37.92;75.89;;
68279;Laerm;55108;51.790;10.960;2023-08-24T03:31:45;61.46;34.01;73.97;;
68279;Laerm;55108;51.790;10.960;2023-08-24T03:34:10;61.36;35.26;75.54;;
68279;Laerm;55108;51.790;10.960;2023-08-24T03:36:36;64.15;38.73;76.00;;
68279;Laerm;55108;51.790;10.960;2023-08-24T03:39:03;64.16;41.96;75.12;;
68279;Laerm;55108;51.790;10.960;2023-08-24T03:41:29;62.54;35.91;75.68;;
68279;Laerm;55108;51.790;10.960;2023-08-24T03:43:54;60.43;35.48;72.87;;
68279;Laerm;55108;51.790;10.960;2023-08-24T03:46:20;62.87;42.39;77.24;;
68279;Laerm;55108;51.790;10.960;2023-08-24T03:48:46;68.28;36.51;85.59;;
68279;Laerm;55108;51.790;10.960;2023-08-24T03:51:12;62.80;39.32;75.39;;
68279;Laerm;55108;51.790;10.960;2023-08-24T03:53:37;61.50;35.67;72.59;;
68279;Laerm;55108;51.790;10.960;2023-08-24T03:56:03;65.11;39.41;80.58;;
68279;Laerm;55108;51.790;10.960;2023-08-24T03:58:29;67.34;33.62;85.11;;
68279;Laerm;55108;51.790;10.960;2023-08-24T04:00:55;64.85;33.60;79.33;;
68279;Laerm;55108;51.790;10.960;2023-08-24T04:03:20;65.48;39.52;79.37;;
68279;Laerm;55108;51.790;10.960;2023-08-24T04:05:46;67.13;41.73;81.50;;
68279;Laerm;55108;51.790;10.960;2023-08-24T04:08:12;60.68;39.57;75.95;;
68279;Laerm;55108;51.790;10.960;2023-08-24T04:10:38;65.30;37.56;81.97;;
68279;Laerm;55108;51.790;10.960;2023-08-24T04:13:03;62.51;35.56;75.29;;
68279;Laerm;55108;51.790;10.960;2023-08-24T04:15:29;65.07;38.66;78.60;;
68279;Laerm;55108;51.790;10.960;2023-08-24T04:17:55;64.68;41.42;76.69;;
68279;Laerm;55108;51.790;10.960;2023-08-24T04:20:21;63.51;36.07;75.79;;
68279;Laerm;55108;51.790;10.960;2023-08-24T04:22:47;62.56;36.05;76.69;;
68279;Laerm;55108;51.790;10.960;2023-08-24T04:25:13;64.58;36.83;77.75;;
68279;Laerm;55108;51.790;10.960;2023-08-24T04:27:39;63.74;36.12;75.76;;
68279;Laerm;55108;51.790;10.960;2023-08-24T04:30:04;67.81;47.11;83.23;;
68279;Laerm;55108;51.790;10.960;2023-08-24T04:32:31;67.58;42.74;79.77;;
68279;Laerm;55108;51.790;10.960;2023-08-24T04:34:57;65.63;41.71;76.70;;
68279;Laerm;55108;51.790;10.960;2023-08-24T04:37:23;66.72;47.99;77.07;;
68279;Laerm;55108;51.790;10.960;2023-08-24T04:39:49;65.36;41.04;75.19;;
68279;Laerm;55108;51.790;10.960;2023-08-24T04:42:15;65.89;41.77;79.18;;
68279;Laerm;55108;51.790;10.960;2023-08-24T04:44:40;65.21;38.64;77.30;;
68279;Laerm;55108;51.790;10.960;2023-08-24T04:47:06;63.85;38.39;73.47;;
68279;Laerm;55108;51.790;10.960;2023-08-24T04:49:32;64.04;40.38;79.12;;
68279;Laerm;55108;51.790;10.960;2023-08-24T04:51:58;64.84;41.25;78.76;;
68279;Laerm;55108;51.790;10.960;2023-08-24T04:54:23;65.01;43.14;75.90;;
68279;Laerm;55108;51.790;10.960;2023-08-24T04:56:49;65.89;46.42;81.51;;
68279;Laerm;55108;51.790;10.960;2023-08-24T04:59:15;66.96;39.70;78.28;;
68279;Laerm;55108;51.790;10.960;2023-08-24T05:01:40;67.92;44.59;79.07;;
68279;Laerm;55108;51.790;10.960;2023-08-24T05:04:06;67.48;42.28;79.38;;
68279;Laerm;55108;51.790;10.960;2023-08-24T05:06:32;66.66;39.52;81.56;;
68279;Laerm;55108;51.790;10.960;2023-08-24T05:08:58;66.80;47.53;78.90;;
68279;Laerm;55108;51.790;10.960;2023-08-24T05:11:26;68.38;47.28;81.53;;
68279;Laerm;55108;51.790;10.960;2023-08-24T05:13:54;68.40;47.77;82.53;;
68279;Laerm;55108;51.790;10.960;2023-08-24T05:16:19;67.29;45.98;77.20;;
68279;Laerm;55108;51.790;10.960;2023-08-24T05:18:45;65.26;40.06;75.34;;
68279;Laerm;55108;51.790;10.960;2023-08-24T05:21:11;67.52;44.60;81.07;;
68279;Laerm;55108;51.790;10.960;2023-08-24T05:23:37;65.49;41.44;74.97;;
68279;Laerm;55108;51.790;10.960;2023-08-24T05:26:03;69.45;42.19;79.44;;
68279;Laerm;55108;51.790;10.960;2023-08-24T05:28:29;66.64;42.64;75.37;;
68279;Laerm;55108;51.790;10.960;2023-08-24T05:30:55;66.47;43.31;80.81;;
68279;Laerm;55108;51.790;10.960;2023-08-24T05:33:21;67.52;43.98;78.94;;
68279;Laerm;55108;51.790;10.960;2023-08-24T05:35:48;66.18;44.79;79.83;;
68279;Laerm;55108;51.790;10.960;2023-08-24T05:38:14;66.21;49.10;82.69;;
68279;Laerm;55108;51.790;10.960;2023-08-24T05:40:40;68.97;53.08;79.99;;
68279;Laerm;55108;51.790;10.960;2023-08-24T05:43:07;63.92;46.52;75.98;;
68279;Laerm;55108;51.790;10.960;2023-08-24T05:45:33;67.70;48.93;79.70;;
68279;Laerm;55108;51.790;10.960;2023-08-24T05:47:59;68.08;46.24;84.06;;
68279;Laerm;55108;51.790;10.960;2023-08-24T05:50:25;67.34;44.90;79.22;;
68279;Laerm;55108;51.790;10.960;2023-08-24T05:52:50;66.00;48.67;75.05;;
68279;Laerm;55108;51.790;10.960;2023-08-24T05:55:16;65.03;44.29;76.78;;
68279;Laerm;55108;51.790;10.960;2023-08-24T05:57:42;66.89;48.13;80.85;;
68279;Laerm;55108;51.790;10.960;2023-08-24T06:00:08;71.02;50.59;87.51;;
68279;Laerm;55108;51.790;10.960;2023-08-24T06:02:37;68.12;55.64;79.34;;
68279;Laerm;55108;51.790;10.960;2023-08-24T06:05:03;65.29;42.66;76.74;;
68279;Laerm;55108;51.790;10.960;2023-08-24T06:07:30;66.15;41.82;79.23;;
68279;Laerm;55108;51.790;10.960;2023-08-24T06:09:58;67.44;46.25;79.95;;
68279;Laerm;55108;51.790;10.960;2023-08-24T06:12:24;64.15;41.90;78.69;;
68279;Laerm;55108;51.790;10.960;2023-08-24T06:14:49;65.96;39.40;80.14;;
68279;Laerm;55108;51.790;10.960;2023-08-24T06:17:15;65.36;45.45;76.32;;
68279;Laerm;55108;51.790;10.960;2023-08-24T06:19:42;65.25;45.60;75.78;;
68279;Laerm;55108;51.790;10.960;2023-08-24T06:22:08;66.81;46.06;77.90;;
68279;Laerm;55108;51.790;10.960;2023-08-24T06:24:34;63.53;42.00;75.58;;
68279;Laerm;55108;51.790;10.960;2023-08-24T06:27:00;65.92;42.92;78.90;;
68279;Laerm;55108;51.790;10.960;2023-08-24T06:29:27;67.64;45.09;80.87;;
68279;Laerm;55108;51.790;10.960;2023-08-24T06:31:52;67.51;42.41;81.44;;
68279;Laerm;55108;51.790;10.960;2023-08-24T06:34:18;67.22;45.27;82.31;;
68279;Laerm;55108;51.790;10.960;2023-08-24T06:36:44;67.48;44.67;81.62;;
68279;Laerm;55108;51.790;10.960;2023-08-24T06:39:10;68.60;45.23;84.05;;
68279;Laerm;55108;51.790;10.960;2023-08-24T06:41:35;67.50;46.91;82.05;;
68279;Laerm;55108;51.790;10.960;2023-08-24T06:44:01;68.54;39.55;87.84;;
68279;Laerm;55108;51.790;10.960;2023-08-24T06:46:27;65.96;40.65;75.18;;
68279;Laerm;55108;51.790;10.960;2023-08-24T06:48:53;66.91;42.09;82.86;;
68279;Laerm;55108;51.790;10.960;2023-08-24T06:51:19;65.52;40.62;77.07;;
68279;Laerm;55108;51.790;10.960;2023-08-24T06:53:44;66.73;41.87;76.26;;
68279;Laerm;55108;51.790;10.960;2023-08-24T06:56:12;67.09;40.76;75.63;;
68279;Laerm;55108;51.790;10.960;2023-08-24T06:58:39;66.70;41.40;77.89;;
68279;Laerm;55108;51.790;10.960;2023-08-24T07:01:05;63.03;40.52;76.10;;
68279;Laerm;55108;51.790;10.960;2023-08-24T07:03:32;67.12;42.66;90.13;;
68279;Laerm;55108;51.790;10.960;2023-08-24T07:05:58;64.31;41.40;77.42;;
68279;Laerm;55108;51.790;10.960;2023-08-24T07:08:24;63.63;41.23;77.27;;
68279;Laerm;55108;51.790;10.960;2023-08-24T07:10:49;62.81;39.18;74.53;;
68279;Laerm;55108;51.790;10.960;2023-08-24T07:13:15;66.62;42.96;80.67;;
68279;Laerm;55108;51.790;10.960;2023-08-24T07:15:41;65.63;43.09;77.14;;
68279;Laerm;55108;51.790;10.960;2023-08-24T07:18:07;66.11;39.44;76.78;;
68279;Laerm;55108;51.790;10.960;2023-08-24T07:20:34;68.07;42.55;81.74;;
68279;Laerm;55108;51.790;10.960;2023-08-24T07:23:00;68.23;47.09;78.78;;
68279;Laerm;55108;51.790;10.960;2023-08-24T07:25:25;68.90;50.42;80.87;;
68279;Laerm;55108;51.790;10.960;2023-08-24T07:27:53;65.91;50.99;75.35;;
68279;Laerm;55108;51.790;10.960;2023-08-24T07:30:23;63.22;47.20;75.06;;
68279;Laerm;55108;51.790;10.960;2023-08-24T07:32:48;67.26;44.34;81.27;;
68279;Laerm;55108;51.790;10.960;2023-08-24T07:35:14;64.69;41.14;75.01;;
68279;Laerm;55108;51.790;10.960;2023-08-24T07:37:41;66.93;46.83;76.54;;
68279;Laerm;55108;51.790;10.960;2023-08-24T07:40:07;66.34;45.26;75.44;;
68279;Laerm;55108;51.790;10.960;2023-08-24T07:42:42;67.14;49.70;77.87;;
68279;Laerm;55108;51.790;10.960;2023-08-24T07:45:08;65.54;47.93;74.79;;
68279;Laerm;55108;51.790;10.960;2023-08-24T07:47:34;65.33;45.70;76.27;;
68279;Laerm;55108;51.790;10.960;2023-08-24T07:50:00;65.16;45.47;75.06;;
68279;Laerm;55108;51.790;10.960;2023-08-24T07:52:26;66.68;43.44;79.05;;
68279;Laerm;55108;51.790;10.960;2023-08-24T07:54:53;69.22;47.59;86.42;;
68279;Laerm;55108;51.790;10.960;2023-08-24T07:57:20;66.56;49.57;78.53;;
68279;Laerm;55108;51.790;10.960;2023-08-24T07:59:46;67.90;47.54;80.23;;
68279;Laerm;55108;51.790;10.960;2023-08-24T08:02:11;64.34;40.73;76.25;;
68279;Laerm;55108;51.790;10.960;2023-08-24T08:04:40;67.76;51.77;76.13;;
68279;Laerm;55108;51.790;10.960;2023-08-24T08:07:06;64.62;41.87;75.31;;
68279;Laerm;55108;51.790;10.960;2023-08-24T08:09:31;68.30;48.50;80.27;;
68279;Laerm;55108;51.790;10.960;2023-08-24T08:11:57;67.03;44.43;76.33;;
68279;Laerm;55108;51.790;10.960;2023-08-24T08:14:23;66.26;48.34;74.46;;
68279;Laerm;55108;51.790;10.960;2023-08-24T08:16:49;64.87;44.63;76.73;;
68279;Laerm;55108;51.790;10.960;2023-08-24T08:19:14;66.78;46.73;76.91;;
68279;Laerm;55108;51.790;10.960;2023-08-24T08:21:40;67.76;47.14;81.11;;
68279;Laerm;55108;51.790;10.960;2023-08-24T08:24:06;65.93;46.45;76.18;;
68279;Laerm;55108;51.790;10.960;2023-08-24T08:26:32;67.13;45.67;76.33;;
68279;Laerm;55108;51.790;10.960;2023-08-24T08:28:57;64.57;44.49;75.40;;
68279;Laerm;55108;51.790;10.960;2023-08-24T08:31:23;68.28;50.53;77.46;;
68279;Laerm;55108;51.790;10.960;2023-08-24T08:33:49;69.16;49.43;81.60;;
68279;Laerm;55108;51.790;10.960;2023-08-24T08:36:15;65.65;46.21;77.86;;
68279;Laerm;55108;51.790;10.960;2023-08-24T08:38:40;67.53;47.70;80.10;;
68279;Laerm;55108;51.790;10.960;2023-08-24T08:41:06;65.05;40.83;75.13;;
68279;Laerm;55108;51.790;10.960;2023-08-24T08:43:32;65.14;43.21;75.15;;
68279;Laerm;55108;51.790;10.960;2023-08-24T08:45:58;64.65;40.30;73.98;;
68279;Laerm;55108;51.790;10.960;2023-08-24T08:48:24;68.26;51.73;81.72;;
68279;Laerm;55108;51.790;10.960;2023-08-24T08:50:51;66.15;45.09;74.71;;
68279;Laerm;55108;51.790;10.960;2023-08-24T08:53:20;66.38;47.21;77.34;;
68279;Laerm;55108;51.790;10.960;2023-08-24T08:55:46;66.82;50.16;76.56;;
68279;Laerm;55108;51.790;10.960;2023-08-24T08:58:12;66.78;48.96;77.26;;
68279;Laerm;55108;51.790;10.960;2023-08-24T09:00:39;65.31;43.72;78.90;;
68279;Laerm;55108;51.790;10.960;2023-08-24T09:03:04;66.95;47.65;78.50;;
68279;Laerm;55108;51.790;10.960;2023-08-24T09:05:31;66.12;45.61;75.65;;
68279;Laerm;55108;51.790;10.960;2023-08-24T09:07:57;68.16;48.77;78.54;;
68279;Laerm;55108;51.790;10.960;2023-08-24T09:10:24;66.16;43.83;74.88;;
68279;Laerm;55108;51.790;10.960;2023-08-24T09:12:50;67.09;49.51;83.74;;
68279;Laerm;55108;51.790;10.960;2023-08-24T09:15:23;66.31;48.60;85.03;;
68279;Laerm;55108;51.790;10.960;2023-08-24T09:17:50;68.43;47.07;86.46;;
68279;Laerm;55108;51.790;10.960;2023-08-24T09:20:15;66.37;46.99;79.05;;
68279;Laerm;55108;51.790;10.960;2023-08-24T09:22:41;65.75;46.82;74.58;;
68279;Laerm;55108;51.790;10.960;2023-08-24T09:25:09;68.62;47.72;82.18;;
68279;Laerm;55108;51.790;10.960;2023-08-24T09:27:36;67.88;49.76;77.95;;
68279;Laerm;55108;51.790;10.960;2023-08-24T09:30:01;64.40;42.21;75.65;;
68279;Laerm;55108;51.790;10.960;2023-08-24T09:32:28;67.87;50.29;77.61;;
68279;Laerm;55108;51.790;10.960;2023-08-24T09:34:54;69.47;46.38;84.33;;
68279;Laerm;55108;51.790;10.960;2023-08-24T09:37:20;69.74;45.38;88.06;;
68279;Laerm;55108;51.790;10.960;2023-08-24T09:39:46;71.53;56.54;89.09;;
68279;Laerm;55108;51.790;10.960;2023-08-24T09:42:12;67.41;46.98;79.97;;
68279;Laerm;55108;51.790;10.960;2023-08-24T09:44:42;67.78;49.01;81.18;;
68279;Laerm;55108;51.790;10.960;2023-08-24T09:47:08;69.10;46.71;91.91;;
68279;Laerm;55108;51.790;10.960;2023-08-24T09:49:36;69.11;50.29;83.84;;
68279;Laerm;55108;51.790;10.960;2023-08-24T09:52:02;69.69;51.68;85.11;;
68279;Laerm;55108;51.790;10.960;2023-08-24T09:54:28;67.90;40.00;83.57;;
68279;Laerm;55108;51.790;10.960;2023-08-24T09:56:57;66.48;45.76;74.03;;
68279;Laerm;55108;51.790;10.960;2023-08-24T09:59:24;67.87;48.72;77.23;;
68279;Laerm;55108;51.790;10.960;2023-08-24T10:01:52;67.54;46.67;78.19;;
68279;Laerm;55108;51.790;10.960;2023-08-24T10:04:22;66.74;50.12;74.84;;
68279;Laerm;55108;51.790;10.960;2023-08-24T10:06:48;68.33;46.49;79.07;;
68279;Laerm;55108;51.790;10.960;2023-08-24T10:09:21;65.20;45.20;78.74;;
68279;Laerm;55108;51.790;10.960;2023-08-24T10:11:52;66.64;49.14;77.15;;
68279;Laerm;55108;51.790;10.960;2023-08-24T10:14:31;68.37;45.44;84.97;;
68279;Laerm;55108;51.790;10.960;2023-08-24T10:16:58;66.20;44.55;79.86;;
68279;Laerm;55108;51.790;10.960;2023-08-24T10:19:23;67.13;39.98;80.10;;
68279;Laerm;55108;51.790;10.960;2023-08-24T10:21:49;67.94;47.03;80.07;;
68279;Laerm;55108;51.790;10.960;2023-08-24T10:24:15;66.54;40.89;75.53;;
68279;Laerm;55108;51.790;10.960;2023-08-24T10:26:42;66.22;49.92;74.97;;
68279;Laerm;55108;51.790;10.960;2023-08-24T10:29:07;69.78;45.62;80.50;;
68279;Laerm;55108;51.790;10.960;2023-08-24T10:31:34;67.18;46.99;79.02;;
68279;Laerm;55108;51.790;10.960;2023-08-24T10:34:00;63.42;40.06;74.70;;
68279;Laerm;55108;51.790;10.960;2023-08-24T10:36:26;65.38;42.08;74.92;;
68279;Laerm;55108;51.790;10.960;2023-08-24T10:38:55;67.77;49.05;78.91;;
68279;Laerm;55108;51.790;10.960;2023-08-24T10:41:25;67.10;45.95;80.99;;
68279;Laerm;55108;51.790;10.960;2023-08-24T10:43:51;67.10;46.35;83.49;;
68279;Laerm;55108;51.790;10.960;2023-08-24T10:46:17;65.88;47.11;79.61;;
68279;Laerm;55108;51.790;10.960;2023-08-24T10:53:45;66.51;43.76;78.10;;
68279;Laerm;55108;51.790;10.960;2023-08-24T10:56:11;67.58;43.99;82.10;;
68279;Laerm;55108;51.790;10.960;2023-08-24T10:58:37;66.33;43.42;83.37;;
68279;Laerm;55108;51.790;10.960;2023-08-24T11:01:03;66.07;48.22;77.69;;
68279;Laerm;55108;51.790;10.960;2023-08-24T11:03:32;66.66;45.80;79.08;;
68279;Laerm;55108;51.790;10.960;2023-08-24T11:05:58;66.97;39.36;83.67;;
68279;Laerm;55108;51.790;10.960;2023-08-24T11:11:25;67.60;42.58;81.01;;
68279;Laerm;55108;51.790;10.960;2023-08-24T11:16:38;66.86;49.96;79.09;;
68279;Laerm;55108;51.790;10.960;2023-08-24T11:19:04;66.63;41.36;75.37;;
68279;Laerm;55108;51.790;10.960;2023-08-24T11:21:32;69.01;46.91;85.41;;
68279;Laerm;55108;51.790;10.960;2023-08-24T11:23:59;65.88;42.40;77.69;;
68279;Laerm;55108;51.790;10.960;2023-08-24T11:26:25;67.01;49.29;78.32;;
68279;Laerm;55108;51.790;10.960;2023-08-24T11:28:53;65.90;44.19;81.31;;
68279;Laerm;55108;51.790;10.960;2023-08-24T11:31:20;68.02;48.95;79.71;;
68279;Laerm;55108;51.790;10.960;2023-08-24T11:33:46;66.72;46.24;76.49;;
68279;Laerm;55108;51.790;10.960;2023-08-24T11:36:11;66.95;39.61;79.47;;
68279;Laerm;55108;51.790;10.960;2023-08-24T11:38:40;69.52;53.83;85.04;;
68279;Laerm;55108;51.790;10.960;2023-08-24T11:43:38;64.46;45.47;75.65;;
68279;Laerm;55108;51.790;10.960;2023-08-24T11:46:04;69.49;42.69;84.19;;
68279;Laerm;55108;51.790;10.960;2023-08-24T11:48:30;66.92;47.53;78.39;;
68279;Laerm;55108;51.790;10.960;2023-08-24T11:50:57;66.64;41.80;81.17;;
68279;Laerm;55108;51.790;10.960;2023-08-24T11:53:24;65.19;46.28;74.37;;
68279;Laerm;55108;51.790;10.960;2023-08-24T11:55:52;68.19;48.56;81.67;;
68279;Laerm;55108;51.790;10.960;2023-08-24T11:58:18;66.87;43.04;79.20;;
68279;Laerm;55108;51.790;10.960;2023-08-24T12:00:44;65.43;42.26;76.69;;
68279;Laerm;55108;51.790;10.960;2023-08-24T12:03:10;66.51;49.94;73.96;;
68279;Laerm;55108;51.790;10.960;2023-08-24T12:05:36;65.41;43.52;78.90;;
68279;Laerm;55108;51.790;10.960;2023-08-24T12:08:02;67.74;47.81;74.77;;
68279;Laerm;55108;51.790;10.960;2023-08-24T12:10:28;68.59;44.15;82.62;;
68279;Laerm;55108;51.790;10.960;2023-08-24T12:13:00;67.92;48.01;82.62;;
68279;Laerm;55108;51.790;10.960;2023-08-24T12:15:27;66.16;46.91;75.40;;
68279;Laerm;55108;51.790;10.960;2023-08-24T12:17:53;65.35;45.21;74.51;;
68279;Laerm;55108;51.790;10.960;2023-08-24T12:20:20;65.84;46.09;77.57;;
68279;Laerm;55108;51.790;10.960;2023-08-24T12:22:50;67.28;44.64;75.94;;
68279;Laerm;55108;51.790;10.960;2023-08-24T12:25:16;65.50;47.86;74.65;;
68279;Laerm;55108;51.790;10.960;2023-08-24T12:27:42;64.92;44.24;73.99;;
68279;Laerm;55108;51.790;10.960;2023-08-24T12:30:07;67.29;49.81;80.68;;
68279;Laerm;55108;51.790;10.960;2023-08-24T12:32:48;66.95;42.26;78.76;;
68279;Laerm;55108;51.790;10.960;2023-08-24T12:35:15;78.58;49.58;104.71;;
68279;Laerm;55108;51.790;10.960;2023-08-24T12:37:41;66.62;45.21;79.10;;
68279;Laerm;55108;51.790;10.960;2023-08-24T12:40:07;66.43;46.69;76.52;;
68279;Laerm;55108;51.790;10.960;2023-08-24T12:42:33;67.93;45.69;81.45;;
68279;Laerm;55108;51.790;10.960;2023-08-24T12:44:59;66.70;50.76;74.56;;
68279;Laerm;55108;51.790;10.960;2023-08-24T12:47:25;66.75;49.58;75.39;;
68279;Laerm;55108;51.790;10.960;2023-08-24T12:49:51;67.15;43.96;75.81;;
68279;Laerm;55108;51.790;10.960;2023-08-24T12:52:17;68.69;47.15;82.44;;
68279;Laerm;55108;51.790;10.960;2023-08-24T12:54:43;66.82;44.15;77.62;;
68279;Laerm;55108;51.790;10.960;2023-08-24T12:57:09;65.60;51.21;73.63;;
68279;Laerm;55108;51.790;10.960;2023-08-24T12:59:35;77.79;46.25;96.65;;
68279;Laerm;55108;51.790;10.960;2023-08-24T13:02:00;66.99;53.13;75.10;;
68279;Laerm;55108;51.790;10.960;2023-08-24T13:04:26;65.13;44.71;76.62;;
68279;Laerm;55108;51.790;10.960;2023-08-24T13:06:54;65.51;45.67;75.11;;
68279;Laerm;55108;51.790;10.960;2023-08-24T13:09:20;68.42;48.69;78.90;;
68279;Laerm;55108;51.790;10.960;2023-08-24T13:11:46;69.02;50.77;81.64;;
68279;Laerm;55108;51.790;10.960;2023-08-24T13:14:11;66.14;42.71;78.50;;
68279;Laerm;55108;51.790;10.960;2023-08-24T13:16:37;69.28;47.52;85.62;;
68279;Laerm;55108;51.790;10.960;2023-08-24T13:19:03;65.89;46.78;80.39;;
68279;Laerm;55108;51.790;10.960;2023-08-24T13:21:29;65.51;48.08;74.94;;
68279;Laerm;55108;51.790;10.960;2023-08-24T13:23:54;67.70;50.62;79.57;;
68279;Laerm;55108;51.790;10.960;2023-08-24T13:26:21;66.33;48.54;75.91;;
68279;Laerm;55108;51.790;10.960;2023-08-24T13:28:48;67.77;46.91;81.55;;
68279;Laerm;55108;51.790;10.960;2023-08-24T13:31:14;64.62;52.13;74.75;;
68279;Laerm;55108;51.790;10.960;2023-08-24T13:33:39;67.67;49.33;78.94;;
68279;Laerm;55108;51.790;10.960;2023-08-24T13:36:05;64.96;47.76;74.03;;
68279;Laerm;55108;51.790;10.960;2023-08-24T13:38:31;65.37;44.14;78.57;;
68279;Laerm;55108;51.790;10.960;2023-08-24T13:40:56;65.17;42.07;74.33;;
68279;Laerm;55108;51.790;10.960;2023-08-24T13:43:22;67.20;48.37;74.41;;
68279;Laerm;55108;51.790;10.960;2023-08-24T13:45:48;67.84;47.32;80.71;;